createdAt,value
2023-05-22T00:00:49.732Z,69.35
2023-05-22T00:01:50.549Z,69.45
2023-05-22T00:02:50.018Z,69.35
2023-05-22T00:03:49.646Z,69.56
2023-05-22T00:04:50.625Z,69.56
2023-05-22T00:05:50.282Z,69.69
2023-05-22T00:06:49.635Z,69.49
2023-05-22T00:07:50.292Z,69.69
2023-05-22T00:08:49.660Z,69.49
2023-05-22T00:09:49.583Z,69.59
2023-05-22T00:10:49.629Z,69.59
2023-05-22T00:11:49.896Z,69.59
2023-05-22T00:12:50.104Z,69.49
2023-05-22T00:13:49.594Z,69.59
2023-05-22T00:14:49.508Z,69.89
2023-05-22T00:15:49.921Z,69.89
2023-05-22T00:16:49.724Z,69.79
2023-05-22T00:17:50.050Z,69.79
2023-05-22T00:18:49.951Z,69.69
2023-05-22T00:19:49.857Z,69.79
2023-05-22T00:20:49.436Z,69.79
2023-05-22T00:21:49.433Z,69.99
2023-05-22T00:22:49.858Z,69.99
2023-05-22T00:23:49.966Z,70.09
2023-05-22T00:24:49.455Z,70.19
2023-05-22T00:25:49.377Z,70.09
2023-05-22T00:26:49.587Z,70.09
2023-05-22T00:27:49.376Z,70.09
2023-05-22T00:28:49.908Z,70.19
2023-05-22T00:29:49.797Z,70.09
2023-05-22T00:30:49.938Z,70.19
2023-05-22T00:31:49.346Z,70.39
2023-05-22T00:32:49.442Z,70.19
2023-05-22T00:33:49.457Z,70.19
2023-05-22T00:34:50.176Z,70.29
2023-05-22T00:35:49.347Z,70.39
2023-05-22T00:36:49.813Z,70.39
2023-05-22T00:37:49.337Z,70.43
2023-05-22T00:38:49.242Z,70.32
2023-05-22T00:39:49.273Z,70.23
2023-05-22T00:40:49.276Z,70.32
2023-05-22T00:41:49.573Z,70.32
2023-05-22T00:42:50.014Z,70.32
2023-05-22T00:43:49.223Z,70.43
2023-05-22T00:44:49.850Z,70.32
2023-05-22T00:45:49.637Z,70.53
2023-05-22T00:46:49.619Z,70.32
2023-05-22T00:47:49.218Z,70.43
2023-05-22T00:48:49.315Z,70.43
2023-05-22T00:49:49.709Z,70.43
2023-05-22T00:50:49.102Z,70.53
2023-05-22T00:51:49.547Z,70.53
2023-05-22T00:52:49.777Z,70.73
2023-05-22T00:53:49.103Z,70.63
2023-05-22T00:54:49.121Z,70.73
2023-05-22T00:55:49.125Z,70.83
2023-05-22T00:56:49.653Z,70.93
2023-05-22T00:57:49.142Z,71.06
2023-05-22T00:58:49.054Z,71.26
2023-05-22T00:59:49.037Z,71.36
2023-05-22T01:00:49.068Z,71.26
2023-05-22T01:01:49.504Z,71.26
2023-05-22T01:02:49.223Z,71.56
2023-05-22T01:03:49.187Z,71.56
2023-05-22T01:04:48.987Z,71.67
2023-05-22T01:05:49.198Z,71.67
2023-05-22T01:06:48.992Z,71.87
2023-05-22T01:07:48.987Z,71.87
2023-05-22T01:08:49.098Z,71.97
2023-05-22T01:09:49.158Z,71.97
2023-05-22T01:10:49.319Z,71.97
2023-05-22T01:11:50.088Z,71.97
2023-05-22T01:12:48.926Z,71.87
2023-05-22T01:13:48.936Z,72.27
2023-05-22T01:14:48.860Z,72.27
2023-05-22T01:15:48.923Z,72.27
2023-05-22T01:16:49.100Z,72.17
2023-05-22T01:17:48.884Z,72.07
2023-05-22T01:18:49.016Z,72.17
2023-05-22T01:19:49.094Z,72.07
2023-05-22T01:20:48.940Z,71.97
2023-05-22T01:21:48.834Z,71.97
2023-05-22T01:22:48.793Z,72.37
2023-05-22T01:23:49.115Z,72.24
2023-05-22T01:24:48.927Z,72.14
2023-05-22T01:25:48.837Z,72.24
2023-05-22T01:26:48.920Z,71.94
2023-05-22T01:27:48.847Z,71.83
2023-05-22T01:28:49.077Z,71.83
2023-05-22T01:29:48.743Z,71.63
2023-05-22T01:30:48.681Z,71.73
2023-05-22T01:31:48.828Z,71.73
2023-05-22T01:32:48.823Z,71.53
2023-05-22T01:33:48.801Z,71.43
2023-05-22T01:34:48.751Z,71.43
2023-05-22T01:35:48.697Z,71.53
2023-05-22T01:36:48.712Z,71.43
2023-05-22T01:37:48.676Z,71.33
2023-05-22T01:38:49.427Z,71.33
2023-05-22T01:39:48.619Z,71.23
2023-05-22T01:40:48.623Z,71.33
2023-05-22T01:41:48.616Z,71.23
2023-05-22T01:42:48.625Z,71.26
2023-05-22T01:43:48.636Z,71.56
2023-05-22T01:44:48.552Z,71.67
2023-05-22T01:45:48.557Z,71.87
2023-05-22T01:46:48.548Z,71.97
2023-05-22T01:47:48.778Z,71.97
2023-05-22T01:48:48.559Z,71.87
2023-05-22T01:49:48.560Z,71.87
2023-05-22T01:50:48.559Z,71.97
2023-05-22T01:51:48.492Z,71.87
2023-05-22T01:52:48.486Z,71.97
2023-05-22T01:53:48.479Z,71.87
2023-05-22T01:54:48.405Z,71.77
2023-05-22T01:55:48.409Z,71.77
2023-05-22T01:56:48.416Z,71.77
2023-05-22T01:57:48.416Z,71.67
2023-05-22T01:58:48.405Z,71.67
2023-05-22T01:59:48.448Z,71.67
2023-05-22T02:00:48.321Z,71.56
2023-05-22T02:01:48.359Z,71.43
2023-05-22T02:02:48.425Z,71.33
2023-05-22T02:03:48.513Z,71.33
2023-05-22T02:04:48.381Z,71.33
2023-05-22T02:05:48.353Z,71.23
2023-05-22T02:06:48.276Z,71.13
2023-05-22T02:07:48.303Z,71.03
2023-05-22T02:08:48.277Z,71.16
2023-05-22T02:09:48.292Z,71.36
2023-05-22T02:10:48.277Z,71.36
2023-05-22T02:11:48.322Z,71.56
2023-05-22T02:12:48.242Z,71.77
2023-05-22T02:13:48.232Z,72.27
2023-05-22T02:14:48.224Z,73.01
2023-05-22T02:15:48.246Z,73.32
2023-05-22T02:16:48.253Z,73.32
2023-05-22T02:17:48.260Z,73.32
2023-05-22T02:18:48.168Z,73.41
2023-05-22T02:19:48.173Z,74.22
2023-05-22T02:20:48.176Z,74.62
2023-05-22T02:21:48.173Z,74.86
2023-05-22T02:22:48.218Z,74.35
2023-05-22T02:23:48.100Z,74.35
2023-05-22T02:24:48.106Z,74.26
2023-05-22T02:25:48.096Z,74.12
2023-05-22T02:26:48.107Z,74.02
2023-05-22T02:27:48.093Z,74.02
2023-05-22T02:28:48.114Z,73.82
2023-05-22T02:29:48.041Z,73.72
2023-05-22T02:30:48.034Z,73.72
2023-05-22T02:31:48.063Z,73.52
2023-05-22T02:32:48.145Z,73.52
2023-05-22T02:33:48.659Z,73.52
2023-05-22T02:34:48.032Z,73.41
2023-05-22T02:35:47.961Z,73.52
2023-05-22T02:36:47.974Z,73.41
2023-05-22T02:37:47.975Z,73.21
2023-05-22T02:38:47.961Z,72.81
2023-05-22T02:39:47.985Z,72.71
2023-05-22T02:40:47.990Z,72.57
2023-05-22T02:41:47.914Z,72.57
2023-05-22T02:42:47.914Z,72.47
2023-05-22T02:43:47.890Z,72.47
2023-05-22T02:44:47.922Z,72.27
2023-05-22T02:45:47.896Z,72.27
2023-05-22T02:46:47.982Z,72.07
2023-05-22T02:47:47.864Z,71.97
2023-05-22T02:48:47.844Z,71.97
2023-05-22T02:49:47.851Z,71.97
2023-05-22T02:50:47.848Z,71.77
2023-05-22T02:51:48.004Z,71.36
2023-05-22T02:52:47.885Z,71.26
2023-05-22T02:53:47.787Z,71.06
2023-05-22T02:54:47.772Z,70.66
2023-05-22T02:55:47.787Z,70.76
2023-05-22T02:56:47.780Z,70.96
2023-05-22T02:57:47.813Z,71.16
2023-05-22T02:58:47.783Z,71.26
2023-05-22T02:59:47.723Z,71.26
2023-05-22T03:00:47.806Z,71.06
2023-05-22T03:01:47.757Z,70.96
2023-05-22T03:02:47.769Z,70.76
2023-05-22T03:03:47.802Z,70.86
2023-05-22T03:04:47.736Z,70.76
2023-05-22T03:05:47.643Z,70.96
2023-05-22T03:06:47.621Z,70.86
2023-05-22T03:07:48.758Z,71.16
2023-05-22T03:08:47.644Z,71.26
2023-05-22T03:09:47.589Z,71.36
2023-05-22T03:10:47.661Z,71.16
2023-05-22T03:11:47.580Z,70.96
2023-05-22T03:12:47.561Z,70.86
2023-05-22T03:13:47.576Z,70.56
2023-05-22T03:14:47.588Z,70.66
2023-05-22T03:15:47.606Z,70.66
2023-05-22T03:16:47.640Z,70.56
2023-05-22T03:17:47.583Z,70.76
2023-05-22T03:18:47.534Z,70.79
2023-05-22T03:19:47.488Z,70.90
2023-05-22T03:20:47.433Z,71.10
2023-05-22T03:21:47.428Z,71.20
2023-05-22T03:22:47.446Z,71.10
2023-05-22T03:23:47.464Z,71.10
2023-05-22T03:24:47.381Z,71.13
2023-05-22T03:25:47.371Z,71.53
2023-05-22T03:26:47.368Z,71.64
2023-05-22T03:27:47.371Z,71.84
2023-05-22T03:28:47.409Z,71.94
2023-05-22T03:29:47.371Z,72.04
2023-05-22T03:30:47.350Z,72.24
2023-05-22T03:31:47.312Z,72.34
2023-05-22T03:32:47.383Z,72.64
2023-05-22T03:33:47.362Z,72.64
2023-05-22T03:34:47.309Z,72.64
2023-05-22T03:35:47.336Z,72.74
2023-05-22T03:36:47.286Z,72.64
2023-05-22T03:37:47.315Z,72.44
2023-05-22T03:38:47.231Z,72.34
2023-05-22T03:39:47.261Z,72.04
2023-05-22T03:40:47.206Z,71.84
2023-05-22T03:41:47.173Z,71.94
2023-05-22T03:42:47.182Z,71.94
2023-05-22T03:43:47.196Z,72.04
2023-05-22T03:44:47.179Z,72.04
2023-05-22T03:45:47.196Z,72.14
2023-05-22T03:46:47.152Z,72.24
2023-05-22T03:47:47.168Z,72.04
2023-05-22T03:48:47.159Z,71.94
2023-05-22T03:49:47.142Z,71.84
2023-05-22T03:50:47.114Z,71.84
2023-05-22T03:51:47.137Z,72.04
2023-05-22T03:52:47.050Z,72.14
2023-05-22T03:53:47.080Z,72.14
2023-05-22T03:54:47.111Z,71.94
2023-05-22T03:55:47.051Z,71.84
2023-05-22T03:56:47.064Z,71.94
2023-05-22T03:57:47.077Z,71.84
2023-05-22T03:58:47.016Z,71.53
2023-05-22T03:59:47.027Z,71.73
2023-05-22T04:00:46.977Z,72.04
2023-05-22T04:01:46.997Z,72.04
2023-05-22T04:02:47.148Z,72.14
2023-05-22T04:03:46.954Z,72.24
2023-05-22T04:04:47.029Z,72.24
2023-05-22T04:05:46.964Z,72.34
2023-05-22T04:06:46.929Z,72.34
2023-05-22T04:07:46.979Z,72.27
2023-05-22T04:08:47.202Z,72.27
2023-05-22T04:09:46.897Z,72.38
2023-05-22T04:10:46.907Z,72.38
2023-05-22T04:11:46.897Z,72.58
2023-05-22T04:12:46.864Z,72.88
2023-05-22T04:13:46.871Z,73.28
2023-05-22T04:14:46.887Z,73.28
2023-05-22T04:15:47.131Z,73.38
2023-05-22T04:16:48.539Z,73.48
2023-05-22T04:17:46.876Z,73.79
2023-05-22T04:18:46.878Z,73.99
2023-05-22T04:19:47.118Z,74.39
2023-05-22T04:20:46.874Z,74.73
2023-05-22T04:21:46.813Z,75.30
2023-05-22T04:22:46.768Z,75.90
2023-05-22T04:23:46.773Z,76.10
2023-05-22T04:24:46.784Z,76.51
2023-05-22T04:25:46.789Z,77.42
2023-05-22T04:26:46.808Z,77.62
2023-05-22T04:27:46.760Z,77.92
2023-05-22T04:28:46.714Z,77.95
2023-05-22T04:29:46.766Z,78.36
2023-05-22T04:30:46.758Z,78.66
2023-05-22T04:31:46.786Z,78.76
2023-05-22T04:32:46.737Z,78.66
2023-05-22T04:33:46.744Z,78.96
2023-05-22T04:34:46.634Z,79.27
2023-05-22T04:35:46.651Z,79.16
2023-05-22T04:36:46.620Z,79.06
2023-05-22T04:37:46.594Z,79.06
2023-05-22T04:38:46.586Z,79.06
2023-05-22T04:39:46.678Z,79.06
2023-05-22T04:40:46.582Z,79.06
2023-05-22T04:41:46.587Z,79.16
2023-05-22T04:42:46.654Z,79.06
2023-05-22T04:43:46.558Z,78.86
2023-05-22T04:44:46.605Z,78.76
2023-05-22T04:45:46.505Z,78.63
2023-05-22T04:46:46.605Z,78.66
2023-05-22T04:47:46.558Z,78.72
2023-05-22T04:48:46.519Z,78.92
2023-05-22T04:49:46.542Z,79.27
2023-05-22T04:50:46.501Z,78.96
2023-05-22T04:51:46.677Z,79.47
2023-05-22T04:52:46.439Z,80.38
2023-05-22T04:53:46.476Z,80.58
2023-05-22T04:54:46.698Z,80.88
2023-05-22T04:55:46.462Z,80.78
2023-05-22T04:56:46.376Z,80.68
2023-05-22T04:57:46.698Z,80.47
2023-05-22T04:58:46.390Z,80.51
2023-05-22T04:59:46.420Z,80.62
2023-05-22T05:00:46.417Z,80.38
2023-05-22T05:01:46.500Z,80.38
2023-05-22T05:02:46.451Z,80.38
2023-05-22T05:03:46.386Z,80.27
2023-05-22T05:04:46.318Z,80.47
2023-05-22T05:05:46.368Z,80.47
2023-05-22T05:06:46.324Z,80.38
2023-05-22T05:07:47.175Z,80.27
2023-05-22T05:08:46.342Z,80.27
2023-05-22T05:09:46.261Z,80.41
2023-05-22T05:10:46.366Z,80.41
2023-05-22T05:11:46.288Z,80.72
2023-05-22T05:12:46.282Z,80.82
2023-05-22T05:13:46.301Z,80.82
2023-05-22T05:14:46.195Z,80.82
2023-05-22T05:15:46.210Z,80.78
2023-05-22T05:16:46.246Z,80.68
2023-05-22T05:17:46.863Z,80.58
2023-05-22T05:18:46.210Z,80.58
2023-05-22T05:19:46.206Z,80.47
2023-05-22T05:20:46.127Z,80.47
2023-05-22T05:21:46.137Z,80.58
2023-05-22T05:22:46.143Z,80.58
2023-05-22T05:23:46.148Z,80.47
2023-05-22T05:24:46.331Z,81.32
2023-05-22T05:25:46.142Z,81.73
2023-05-22T05:26:46.080Z,82.03
2023-05-22T05:27:46.083Z,82.03
2023-05-22T05:28:46.161Z,81.82
2023-05-22T05:29:46.078Z,81.82
2023-05-22T05:30:46.086Z,81.82
2023-05-22T05:31:46.151Z,82.03
2023-05-22T05:32:46.078Z,82.03
2023-05-22T05:33:46.012Z,81.93
2023-05-22T05:34:45.994Z,81.82
2023-05-22T05:35:46.044Z,81.73
2023-05-22T05:36:46.027Z,81.73
2023-05-22T05:37:45.942Z,81.62
2023-05-22T05:38:45.969Z,81.62
2023-05-22T05:39:45.930Z,81.59
2023-05-22T05:40:46.088Z,81.59
2023-05-22T05:41:45.955Z,81.59
2023-05-22T05:42:45.874Z,81.59
2023-05-22T05:43:45.894Z,81.59
2023-05-22T05:44:45.860Z,81.59
2023-05-22T05:45:45.995Z,81.59
2023-05-22T05:46:45.872Z,81.59
2023-05-22T05:47:45.918Z,81.59
2023-05-22T05:48:45.894Z,81.68
2023-05-22T05:49:45.809Z,81.68
2023-05-22T05:50:45.823Z,81.68
2023-05-22T05:51:45.832Z,81.68
2023-05-22T05:52:45.835Z,81.68
2023-05-22T05:53:45.816Z,81.59
2023-05-22T05:54:45.834Z,81.59
2023-05-22T05:55:45.766Z,81.48
2023-05-22T05:56:45.740Z,81.38
2023-05-22T05:57:45.749Z,80.98
2023-05-22T05:58:45.762Z,80.82
2023-05-22T05:59:45.756Z,80.72
2023-05-22T06:00:45.763Z,80.62
2023-05-22T06:01:45.666Z,80.72
2023-05-22T06:02:46.103Z,80.82
2023-05-22T06:03:45.856Z,80.51
2023-05-22T06:04:45.685Z,80.41
2023-05-22T06:05:45.760Z,80.11
2023-05-22T06:06:45.698Z,79.91
2023-05-22T06:07:45.620Z,79.71
2023-05-22T06:08:45.625Z,79.50
2023-05-22T06:09:45.655Z,79.50
2023-05-22T06:10:45.660Z,79.50
2023-05-22T06:11:45.748Z,79.10
2023-05-22T06:12:45.672Z,78.94
2023-05-22T06:13:45.579Z,78.74
2023-05-22T06:14:45.584Z,78.53
2023-05-22T06:15:45.585Z,78.74
2023-05-22T06:16:45.626Z,78.63
2023-05-22T06:17:45.650Z,78.74
2023-05-22T06:18:46.552Z,78.74
2023-05-22T06:19:45.495Z,78.74
2023-05-22T06:20:45.511Z,78.74
2023-05-22T06:21:45.500Z,78.74
2023-05-22T06:22:45.640Z,78.84
2023-05-22T06:23:45.439Z,78.94
2023-05-22T06:24:45.451Z,79.04
2023-05-22T06:25:45.457Z,79.04
2023-05-22T06:26:45.459Z,79.04
2023-05-22T06:27:45.477Z,79.14
2023-05-22T06:28:45.567Z,79.04
2023-05-22T06:29:45.473Z,78.84
2023-05-22T06:30:45.568Z,78.63
2023-05-22T06:31:45.480Z,78.63
2023-05-22T06:32:45.503Z,78.63
2023-05-22T06:33:45.599Z,78.53
2023-05-22T06:34:45.388Z,78.33
2023-05-22T06:35:45.439Z,78.33
2023-05-22T06:36:45.345Z,78.23
2023-05-22T06:37:45.345Z,78.13
2023-05-22T06:38:45.348Z,78.13
2023-05-22T06:39:46.369Z,78.03
2023-05-22T06:40:45.360Z,78.13
2023-05-22T06:41:45.370Z,78.03
2023-05-22T06:42:45.303Z,78.13
2023-05-22T06:43:45.266Z,78.03
2023-05-22T06:44:45.251Z,78.23
2023-05-22T06:45:45.457Z,78.33
2023-05-22T06:46:45.283Z,78.33
2023-05-22T06:47:45.334Z,78.33
2023-05-22T06:48:45.200Z,78.33
2023-05-22T06:49:45.205Z,78.33
2023-05-22T06:50:45.214Z,78.33
2023-05-22T06:51:45.226Z,78.43
2023-05-22T06:52:45.229Z,78.43
2023-05-22T06:53:45.214Z,78.43
2023-05-22T06:54:45.142Z,78.53
2023-05-22T06:55:45.160Z,78.63
2023-05-22T06:56:45.154Z,78.63
2023-05-22T06:57:45.160Z,78.53
2023-05-22T06:58:45.165Z,78.43
2023-05-22T06:59:45.069Z,78.33
2023-05-22T07:00:45.077Z,78.23
2023-05-22T07:01:45.187Z,78.23
2023-05-22T07:02:45.120Z,78.33
2023-05-22T07:03:45.100Z,78.33
2023-05-22T07:04:45.084Z,78.33
2023-05-22T07:05:45.075Z,78.13
2023-05-22T07:06:45.003Z,77.93
2023-05-22T07:07:44.979Z,77.93
2023-05-22T07:08:44.981Z,77.73
2023-05-22T07:09:45.124Z,77.53
2023-05-22T07:10:45.029Z,77.32
2023-05-22T07:11:44.928Z,77.12
2023-05-22T07:12:44.937Z,77.22
2023-05-22T07:13:44.947Z,77.32
2023-05-22T07:14:44.918Z,77.22
2023-05-22T07:15:46.557Z,77.12
2023-05-22T07:16:45.064Z,77.12
2023-05-22T07:17:45.012Z,77.22
2023-05-22T07:18:44.916Z,77.22
2023-05-22T07:19:44.906Z,77.12
2023-05-22T07:20:44.902Z,77.12
2023-05-22T07:21:44.894Z,77.22
2023-05-22T07:22:44.889Z,77.12
2023-05-22T07:23:44.811Z,77.02
2023-05-22T07:24:44.821Z,77.15
2023-05-22T07:25:44.825Z,77.36
2023-05-22T07:26:44.852Z,77.36
2023-05-22T07:27:44.907Z,77.36
2023-05-22T07:28:44.856Z,77.56
2023-05-22T07:29:44.754Z,77.56
2023-05-22T07:30:44.760Z,77.66
2023-05-22T07:31:44.886Z,77.76
2023-05-22T07:32:45.366Z,77.86
2023-05-22T07:33:44.785Z,77.97
2023-05-22T07:34:44.753Z,77.97
2023-05-22T07:35:44.683Z,78.17
2023-05-22T07:36:44.695Z,78.17
2023-05-22T07:37:44.701Z,78.27
2023-05-22T07:38:44.667Z,78.27
2023-05-22T07:39:44.825Z,78.27
2023-05-22T07:40:44.818Z,78.47
2023-05-22T07:41:44.620Z,78.47
2023-05-22T07:42:44.712Z,78.47
2023-05-22T07:43:44.620Z,78.47
2023-05-22T07:44:44.658Z,78.37
2023-05-22T07:45:44.893Z,78.37
2023-05-22T07:46:44.654Z,78.37
2023-05-22T07:47:44.617Z,78.47
2023-05-22T07:48:44.571Z,78.37
2023-05-22T07:49:44.541Z,78.37
2023-05-22T07:50:44.537Z,78.37
2023-05-22T07:51:45.315Z,78.27
2023-05-22T07:52:44.502Z,78.27
2023-05-22T07:53:44.505Z,78.06
2023-05-22T07:54:45.517Z,78.17
2023-05-22T07:55:44.472Z,78.17
2023-05-22T07:56:44.485Z,78.27
2023-05-22T07:57:44.854Z,78.37
2023-05-22T07:58:44.430Z,78.37
2023-05-22T07:59:44.405Z,78.27
2023-05-22T08:00:44.444Z,78.27
2023-05-22T08:01:44.407Z,78.27
2023-05-22T08:02:45.075Z,78.17
2023-05-22T08:03:44.608Z,78.17
2023-05-22T08:04:44.377Z,78.27
2023-05-22T08:05:44.384Z,78.17
2023-05-22T08:06:44.450Z,78.06
2023-05-22T08:07:44.340Z,77.97
2023-05-22T08:08:44.358Z,78.17
2023-05-22T08:09:45.304Z,78.41
2023-05-22T08:11:01.856Z,78.71
2023-05-22T08:11:44.279Z,78.50
2023-05-22T08:12:44.297Z,78.81
2023-05-22T08:13:44.308Z,78.91
2023-05-22T08:14:44.277Z,78.91
2023-05-22T08:15:44.301Z,79.01
2023-05-22T08:16:44.254Z,79.11
2023-05-22T08:17:44.273Z,78.91
2023-05-22T08:18:44.351Z,79.01
2023-05-22T08:19:44.322Z,79.01
2023-05-22T08:20:44.219Z,78.91
2023-05-22T08:21:45.050Z,78.81
2023-05-22T08:22:44.164Z,78.71
2023-05-22T08:23:44.170Z,78.81
2023-05-22T08:24:44.249Z,78.91
2023-05-22T08:25:44.160Z,78.91
2023-05-22T08:26:44.163Z,79.01
2023-05-22T08:27:44.181Z,79.01
2023-05-22T08:28:44.137Z,79.01
2023-05-22T08:29:44.133Z,79.01
2023-05-22T08:30:44.290Z,78.71
2023-05-22T08:31:44.153Z,78.81
2023-05-22T08:32:44.166Z,79.01
2023-05-22T08:33:44.173Z,79.01
2023-05-22T08:34:44.128Z,79.21
2023-05-22T08:35:44.038Z,79.21
2023-05-22T08:36:44.143Z,79.21
2023-05-22T08:37:44.042Z,79.11
2023-05-22T08:38:44.040Z,79.01
2023-05-22T08:39:44.905Z,79.11
2023-05-22T08:40:46.227Z,79.01
2023-05-22T08:41:43.958Z,79.32
2023-05-22T08:42:43.983Z,79.55
2023-05-22T08:43:43.959Z,79.75
2023-05-22T08:44:44.008Z,80.06
2023-05-22T08:45:44.006Z,80.26
2023-05-22T08:46:44.857Z,80.36
2023-05-22T08:47:44.002Z,80.46
2023-05-22T08:48:43.932Z,80.46
2023-05-22T08:49:43.907Z,80.46
2023-05-22T08:50:43.932Z,80.46
2023-05-22T08:51:43.928Z,80.57
2023-05-22T08:52:43.970Z,80.66
2023-05-22T08:53:43.929Z,80.57
2023-05-22T08:54:43.952Z,80.46
2023-05-22T08:55:43.948Z,80.26
2023-05-22T08:56:55.653Z,80.26
2023-05-22T08:57:43.875Z,80.36
2023-05-22T08:58:43.857Z,80.36
2023-05-22T08:59:43.866Z,80.26
2023-05-22T09:00:44.956Z,80.36
2023-05-22T09:01:44.149Z,80.26
2023-05-22T09:02:43.840Z,80.16
2023-05-22T09:03:43.798Z,79.96
2023-05-22T09:04:43.841Z,79.86
2023-05-22T09:05:43.826Z,79.86
2023-05-22T09:06:44.334Z,80.06
2023-05-22T09:07:43.758Z,80.46
2023-05-22T09:08:43.752Z,80.71
2023-05-22T09:09:43.764Z,80.91
2023-05-22T09:10:43.766Z,81.01
2023-05-22T09:11:43.876Z,81.21
2023-05-22T09:12:43.758Z,81.41
2023-05-22T09:13:43.669Z,81.55
2023-05-22T09:14:43.674Z,81.55
2023-05-22T09:15:43.670Z,81.65
2023-05-22T09:16:43.733Z,81.55
2023-05-22T09:17:44.452Z,81.76
2023-05-22T09:18:44.603Z,81.85
2023-05-22T09:19:43.641Z,81.96
2023-05-22T09:20:43.630Z,81.96
2023-05-22T09:21:43.537Z,81.96
2023-05-22T09:22:43.622Z,81.85
2023-05-22T09:23:43.534Z,81.76
2023-05-22T09:24:43.669Z,81.65
2023-05-22T09:25:43.584Z,81.55
2023-05-22T09:26:43.575Z,81.35
2023-05-22T09:27:43.559Z,81.35
2023-05-22T09:28:43.580Z,81.35
2023-05-22T09:29:43.468Z,81.45
2023-05-22T09:30:43.698Z,81.45
2023-05-22T09:31:43.809Z,81.55
2023-05-22T09:32:43.509Z,81.35
2023-05-22T09:33:43.493Z,81.25
2023-05-22T09:34:43.434Z,81.11
2023-05-22T09:35:43.437Z,80.91
2023-05-22T09:36:43.422Z,80.80
2023-05-22T09:37:43.421Z,80.60
2023-05-22T09:38:43.424Z,80.40
2023-05-22T09:39:43.443Z,80.10
2023-05-22T09:40:43.344Z,80.00
2023-05-22T09:41:43.378Z,79.79
2023-05-22T09:42:43.380Z,79.79
2023-05-22T09:43:43.677Z,79.90
2023-05-22T09:44:43.368Z,80.00
2023-05-22T09:45:43.372Z,79.93
2023-05-22T09:46:43.449Z,80.13
2023-05-22T09:47:43.400Z,80.24
2023-05-22T09:48:43.319Z,80.34
2023-05-22T09:49:43.269Z,80.54
2023-05-22T09:50:43.331Z,80.64
2023-05-22T09:51:43.239Z,80.74
2023-05-22T09:52:43.311Z,80.84
2023-05-22T09:53:43.218Z,80.88
2023-05-22T09:54:43.228Z,80.98
2023-05-22T09:55:43.273Z,81.09
2023-05-22T09:56:43.247Z,81.09
2023-05-22T09:57:43.173Z,80.94
2023-05-22T09:58:43.170Z,80.74
2023-05-22T09:59:43.157Z,80.64
2023-05-22T10:00:43.166Z,80.64
2023-05-22T10:01:43.172Z,80.64
2023-05-22T10:02:43.258Z,80.44
2023-05-22T10:03:43.239Z,80.44
2023-05-22T10:04:43.144Z,80.34
2023-05-22T10:05:43.120Z,80.40
2023-05-22T10:06:43.097Z,80.34
2023-05-22T10:07:43.144Z,80.24
2023-05-22T10:08:43.114Z,80.24
2023-05-22T10:09:43.020Z,80.00
2023-05-22T10:10:43.166Z,79.90
2023-05-22T10:11:43.060Z,80.00
2023-05-22T10:12:43.045Z,80.00
2023-05-22T10:13:43.069Z,79.79
2023-05-22T10:14:43.080Z,79.69
2023-05-22T10:15:43.007Z,79.59
2023-05-22T10:16:43.029Z,79.59
2023-05-22T10:17:43.011Z,79.59
2023-05-22T10:18:42.971Z,79.59
2023-05-22T10:19:44.609Z,79.79
2023-05-22T10:20:42.992Z,79.79
2023-05-22T10:21:43.641Z,79.79
2023-05-22T10:22:42.975Z,79.79
2023-05-22T10:23:42.909Z,79.79
2023-05-22T10:24:42.941Z,79.79
2023-05-22T10:25:42.841Z,79.79
2023-05-22T10:26:42.895Z,79.59
2023-05-22T10:27:42.872Z,79.29
2023-05-22T10:28:42.891Z,79.19
2023-05-22T10:29:42.873Z,79.25
2023-05-22T10:30:43.101Z,79.55
2023-05-22T10:31:43.400Z,79.46
2023-05-22T10:32:42.908Z,79.35
2023-05-22T10:33:42.860Z,79.25
2023-05-22T10:34:42.804Z,79.05
2023-05-22T10:35:42.799Z,78.95
2023-05-22T10:36:43.604Z,78.95
2023-05-22T10:37:42.800Z,78.95
2023-05-22T10:38:42.803Z,78.85
2023-05-22T10:39:42.724Z,78.75
2023-05-22T10:40:42.715Z,78.75
2023-05-22T10:41:42.722Z,78.75
2023-05-22T10:42:42.728Z,78.71
2023-05-22T10:43:42.662Z,78.71
2023-05-22T10:44:42.774Z,78.81
2023-05-22T10:45:44.704Z,78.81
2023-05-22T10:46:42.714Z,78.61
2023-05-22T10:47:42.691Z,78.17
2023-05-22T10:48:42.627Z,78.06
2023-05-22T10:49:42.730Z,77.86
2023-05-22T10:50:42.834Z,77.56
2023-05-22T10:51:42.644Z,77.56
2023-05-22T10:52:42.614Z,77.86
2023-05-22T10:53:43.946Z,77.46
2023-05-22T10:54:42.580Z,77.26
2023-05-22T10:55:42.665Z,77.26
2023-05-22T10:56:42.573Z,77.06
2023-05-22T10:57:43.396Z,77.12
2023-05-22T10:58:42.546Z,76.92
2023-05-22T10:59:42.594Z,77.02
2023-05-22T11:00:42.762Z,77.53
2023-05-22T11:01:42.522Z,77.62
2023-05-22T11:02:42.583Z,77.22
2023-05-22T11:03:42.666Z,76.82
2023-05-22T11:04:43.173Z,76.88
2023-05-22T11:05:42.486Z,76.58
2023-05-22T11:06:42.716Z,76.78
2023-05-22T11:07:42.444Z,76.48
2023-05-22T11:08:42.366Z,76.54
2023-05-22T11:09:42.411Z,76.04
2023-05-22T11:10:42.520Z,76.14
2023-05-22T11:11:42.536Z,76.04
2023-05-22T11:12:42.391Z,76.24
2023-05-22T11:13:42.440Z,77.45
2023-05-22T11:14:42.390Z,75.94
2023-05-22T11:15:43.341Z,76.34
2023-05-22T11:16:42.438Z,76.14
2023-05-22T11:17:42.440Z,75.43
2023-05-22T11:18:43.262Z,75.03
2023-05-22T11:19:42.481Z,74.69
2023-05-22T11:20:42.628Z,73.88
2023-05-22T11:21:42.300Z,73.72
2023-05-22T11:22:42.299Z,74.32
2023-05-22T11:23:42.418Z,74.73
2023-05-22T11:24:42.275Z,74.52
2023-05-22T11:25:42.327Z,74.32
2023-05-22T11:26:42.285Z,74.43
2023-05-22T11:27:42.408Z,74.32
2023-05-22T11:28:42.374Z,73.92
2023-05-22T11:29:42.203Z,74.02
2023-05-22T11:30:42.386Z,74.36
2023-05-22T11:31:42.304Z,73.85
2023-05-22T11:32:42.281Z,74.16
2023-05-22T11:33:42.201Z,74.12
2023-05-22T11:34:43.178Z,74.52
2023-05-22T11:35:42.216Z,74.63
2023-05-22T11:36:42.253Z,74.90
2023-05-22T11:37:42.233Z,74.69
2023-05-22T11:38:42.099Z,74.49
2023-05-22T11:39:42.140Z,73.99
2023-05-22T11:40:42.353Z,73.14
2023-05-22T11:41:42.159Z,72.24
2023-05-22T11:42:42.157Z,72.24
2023-05-22T11:43:42.056Z,72.54
2023-05-22T11:44:42.077Z,72.74
2023-05-22T11:45:42.082Z,72.94
2023-05-22T11:46:42.031Z,73.25
2023-05-22T11:47:42.112Z,72.94
2023-05-22T11:48:42.026Z,72.54
2023-05-22T11:49:42.011Z,72.14
2023-05-22T11:50:42.798Z,72.14
2023-05-22T11:51:42.017Z,72.34
2023-05-22T11:52:42.018Z,71.84
2023-05-22T11:53:42.030Z,71.94
2023-05-22T11:54:41.997Z,71.94
2023-05-22T11:55:41.933Z,71.70
2023-05-22T11:56:41.940Z,71.30
2023-05-22T11:57:42.044Z,71.40
2023-05-22T11:58:41.851Z,71.70
2023-05-22T11:59:41.976Z,71.80
2023-05-22T12:00:42.109Z,71.80
2023-05-22T12:01:43.126Z,71.47
2023-05-22T12:02:42.514Z,71.36
2023-05-22T12:03:42.012Z,70.26
2023-05-22T12:04:41.914Z,70.56
2023-05-22T12:05:42.007Z,70.76
2023-05-22T12:06:41.820Z,70.23
2023-05-22T12:07:41.811Z,68.85
2023-05-22T12:08:41.910Z,69.45
2023-05-22T12:09:41.919Z,69.89
2023-05-22T12:10:42.008Z,70.79
2023-05-22T12:11:41.848Z,70.96
2023-05-22T12:12:41.805Z,70.76
2023-05-22T12:13:41.775Z,70.76
2023-05-22T12:14:42.664Z,70.66
2023-05-22T12:15:41.755Z,70.73
2023-05-22T12:16:41.856Z,70.12
2023-05-22T12:17:41.902Z,69.82
2023-05-22T12:18:41.699Z,69.72
2023-05-22T12:19:41.673Z,69.69
2023-05-22T12:20:41.729Z,69.38
2023-05-22T12:21:41.696Z,68.59
2023-05-22T12:22:41.709Z,68.48
2023-05-22T12:23:42.639Z,67.98
2023-05-22T12:24:41.611Z,68.48
2023-05-22T12:25:42.182Z,69.38
2023-05-22T12:26:41.636Z,68.75
2023-05-22T12:27:41.642Z,68.95
2023-05-22T12:28:41.554Z,68.25
2023-05-22T12:29:41.675Z,69.35
2023-05-22T12:30:41.672Z,67.74
2023-05-22T12:31:41.561Z,66.54
2023-05-22T12:32:41.568Z,67.91
2023-05-22T12:33:41.527Z,68.21
2023-05-22T12:34:41.493Z,68.21
2023-05-22T12:35:41.512Z,67.61
2023-05-22T12:36:41.493Z,66.31
2023-05-22T12:37:41.544Z,66.71
2023-05-22T12:38:41.455Z,67.21
2023-05-22T12:39:41.475Z,68.02
2023-05-22T12:40:41.533Z,65.80
2023-05-22T12:41:41.491Z,65.70
2023-05-22T12:42:41.436Z,66.41
2023-05-22T12:43:41.434Z,67.01
2023-05-22T12:44:41.393Z,65.80
2023-05-22T12:45:41.449Z,65.41
2023-05-22T12:46:41.450Z,65.91
2023-05-22T12:47:41.424Z,66.61
2023-05-22T12:48:41.372Z,66.61
2023-05-22T12:49:41.320Z,67.08
2023-05-22T12:50:41.569Z,65.10
2023-05-22T12:51:41.332Z,66.61
2023-05-22T12:52:41.400Z,67.68